sensor_id;sensor_type;location;lat;lon;timestamp;temperature;humidity
20658;DHT22;10488;50.846;4.078;2022-09-09T00:04:20;14.80;99.90
20658;DHT22;10488;50.846;4.078;2022-09-09T00:06:52;14.80;99.90
20658;DHT22;10488;50.846;4.078;2022-09-09T00:09:21;14.90;99.90
20658;DHT22;10488;50.846;4.078;2022-09-09T00:12:12;14.80;99.90
20658;DHT22;10488;50.846;4.078;2022-09-09T00:14:54;14.70;99.90
20658;DHT22;10488;50.846;4.078;2022-09-09T00:20:14;14.80;99.90
20658;DHT22;10488;50.846;4.078;2022-09-09T00:22:48;14.80;99.90
20658;DHT22;10488;50.846;4.078;2022-09-09T00:28:16;14.70;99.90
20658;DHT22;10488;50.846;4.078;2022-09-09T00:30:43;14.70;99.90
20658;DHT22;10488;50.846;4.078;2022-09-09T00:33:13;14.70;99.90
20658;DHT22;10488;50.846;4.078;2022-09-09T00:36:13;14.70;99.90
20658;DHT22;10488;50.846;4.078;2022-09-09T00:38:55;14.70;99.90
20658;DHT22;10488;50.846;4.078;2022-09-09T00:42:04;14.80;99.90
20658;DHT22;10488;50.846;4.078;2022-09-09T00:44:37;14.70;99.90
20658;DHT22;10488;50.846;4.078;2022-09-09T00:47:12;14.70;99.90
20658;DHT22;10488;50.846;4.078;2022-09-09T00:52:30;14.90;99.90
20658;DHT22;10488;50.846;4.078;2022-09-09T00:57:36;14.90;99.90
20658;DHT22;10488;50.846;4.078;2022-09-09T01:00:18;14.90;99.90
20658;DHT22;10488;50.846;4.078;2022-09-09T01:05:39;14.90;99.90
20658;DHT22;10488;50.846;4.078;2022-09-09T01:11:01;14.80;99.90
20658;DHT22;10488;50.846;4.078;2022-09-09T01:13:36;14.90;99.90
20658;DHT22;10488;50.846;4.078;2022-09-09T01:16:04;14.90;99.90
20658;DHT22;10488;50.846;4.078;2022-09-09T01:18:40;14.90;99.90
20658;DHT22;10488;50.846;4.078;2022-09-09T01:26:37;14.90;99.90
20658;DHT22;10488;50.846;4.078;2022-09-09T01:29:08;14.80;99.90
20658;DHT22;10488;50.846;4.078;2022-09-09T01:32:35;14.80;99.90
20658;DHT22;10488;50.846;4.078;2022-09-09T01:34:33;14.80;99.90
20658;DHT22;10488;50.846;4.078;2022-09-09T01:37:03;14.70;99.90
20658;DHT22;10488;50.846;4.078;2022-09-09T01:39:32;14.60;99.90
20658;DHT22;10488;50.846;4.078;2022-09-09T01:41:58;14.60;99.90
20658;DHT22;10488;50.846;4.078;2022-09-09T01:44:25;14.70;99.90
20658;DHT22;10488;50.846;4.078;2022-09-09T01:46:52;14.70;99.90
20658;DHT22;10488;50.846;4.078;2022-09-09T01:49:17;14.70;99.90
20658;DHT22;10488;50.846;4.078;2022-09-09T01:51:43;14.70;99.90
20658;DHT22;10488;50.846;4.078;2022-09-09T01:54:10;14.70;99.90
20658;DHT22;10488;50.846;4.078;2022-09-09T02:04:40;14.70;99.90
20658;DHT22;10488;50.846;4.078;2022-09-09T02:10:15;14.70;99.90
20658;DHT22;10488;50.846;4.078;2022-09-09T02:12:46;14.70;99.90
20658;DHT22;10488;50.846;4.078;2022-09-09T02:15:22;14.70;99.90
20658;DHT22;10488;50.846;4.078;2022-09-09T02:17:52;14.70;99.90
20658;DHT22;10488;50.846;4.078;2022-09-09T02:20:19;14.80;99.90
20658;DHT22;10488;50.846;4.078;2022-09-09T02:22:47;14.80;99.90
20658;DHT22;10488;50.846;4.078;2022-09-09T02:25:18;14.80;99.90
20658;DHT22;10488;50.846;4.078;2022-09-09T02:27:46;14.80;99.90
20658;DHT22;10488;50.846;4.078;2022-09-09T02:30:13;14.70;99.90
20658;DHT22;10488;50.846;4.078;2022-09-09T02:32:42;14.70;99.90
20658;DHT22;10488;50.846;4.078;2022-09-09T02:35:28;14.70;99.90
20658;DHT22;10488;50.846;4.078;2022-09-09T02:37:58;14.70;99.90
20658;DHT22;10488;50.846;4.078;2022-09-09T02:40:25;14.60;99.90
20658;DHT22;10488;50.846;4.078;2022-09-09T02:42:51;14.70;99.90
20658;DHT22;10488;50.846;4.078;2022-09-09T02:45:19;14.70;99.90
20658;DHT22;10488;50.846;4.078;2022-09-09T02:48:17;14.70;99.90
20658;DHT22;10488;50.846;4.078;2022-09-09T02:53:40;14.70;99.90
20658;DHT22;10488;50.846;4.078;2022-09-09T02:56:16;14.70;99.90
20658;DHT22;10488;50.846;4.078;2022-09-09T02:58:42;14.70;99.90
20658;DHT22;10488;50.846;4.078;2022-09-09T03:01:08;14.70;99.90
20658;DHT22;10488;50.846;4.078;2022-09-09T03:03:34;14.70;99.90
20658;DHT22;10488;50.846;4.078;2022-09-09T03:05:59;14.70;99.90
20658;DHT22;10488;50.846;4.078;2022-09-09T03:08:25;14.80;99.90
20658;DHT22;10488;50.846;4.078;2022-09-09T03:10:54;14.80;99.90
20658;DHT22;10488;50.846;4.078;2022-09-09T03:13:19;14.80;99.90
20658;DHT22;10488;50.846;4.078;2022-09-09T03:15:45;14.90;99.90
20658;DHT22;10488;50.846;4.078;2022-09-09T03:18:11;14.90;99.90
20658;DHT22;10488;50.846;4.078;2022-09-09T03:20:36;14.90;99.90
20658;DHT22;10488;50.846;4.078;2022-09-09T03:23:02;15.00;99.90
20658;DHT22;10488;50.846;4.078;2022-09-09T03:25:28;15.00;99.90
20658;DHT22;10488;50.846;4.078;2022-09-09T03:27:55;15.00;99.90
20658;DHT22;10488;50.846;4.078;2022-09-09T03:30:22;15.00;99.90
20658;DHT22;10488;50.846;4.078;2022-09-09T03:32:48;14.90;99.90
20658;DHT22;10488;50.846;4.078;2022-09-09T03:35:14;14.90;99.90
20658;DHT22;10488;50.846;4.078;2022-09-09T03:37:40;14.90;99.90
20658;DHT22;10488;50.846;4.078;2022-09-09T03:40:07;15.00;99.90
20658;DHT22;10488;50.846;4.078;2022-09-09T03:42:35;15.00;99.90
20658;DHT22;10488;50.846;4.078;2022-09-09T03:45:04;15.00;99.90
20658;DHT22;10488;50.846;4.078;2022-09-09T03:47:30;15.10;99.90
20658;DHT22;10488;50.846;4.078;2022-09-09T03:49:56;15.10;99.90
20658;DHT22;10488;50.846;4.078;2022-09-09T03:52:21;15.10;99.90
20658;DHT22;10488;50.846;4.078;2022-09-09T03:54:50;15.20;99.90
20658;DHT22;10488;50.846;4.078;2022-09-09T03:57:16;15.30;99.90
20658;DHT22;10488;50.846;4.078;2022-09-09T03:59:43;15.20;99.90
20658;DHT22;10488;50.846;4.078;2022-09-09T04:02:09;15.20;99.90
20658;DHT22;10488;50.846;4.078;2022-09-09T04:04:35;15.30;99.90
20658;DHT22;10488;50.846;4.078;2022-09-09T04:07:01;15.30;99.90
20658;DHT22;10488;50.846;4.078;2022-09-09T04:09:27;15.10;99.90
20658;DHT22;10488;50.846;4.078;2022-09-09T04:11:53;15.10;99.90
20658;DHT22;10488;50.846;4.078;2022-09-09T04:14:21;15.00;99.90
20658;DHT22;10488;50.846;4.078;2022-09-09T04:16:47;15.10;99.90
20658;DHT22;10488;50.846;4.078;2022-09-09T04:19:13;15.10;99.90
20658;DHT22;10488;50.846;4.078;2022-09-09T04:21:40;15.10;99.90
20658;DHT22;10488;50.846;4.078;2022-09-09T04:24:07;15.10;99.90
20658;DHT22;10488;50.846;4.078;2022-09-09T04:26:34;15.10;99.90
20658;DHT22;10488;50.846;4.078;2022-09-09T04:29:00;15.10;99.90
20658;DHT22;10488;50.846;4.078;2022-09-09T04:31:25;15.00;99.90
20658;DHT22;10488;50.846;4.078;2022-09-09T04:33:52;15.00;99.90
20658;DHT22;10488;50.846;4.078;2022-09-09T04:36:19;15.00;99.90
20658;DHT22;10488;50.846;4.078;2022-09-09T04:38:45;15.00;99.90
20658;DHT22;10488;50.846;4.078;2022-09-09T04:41:12;15.00;99.90
20658;DHT22;10488;50.846;4.078;2022-09-09T04:43:38;15.10;99.90
20658;DHT22;10488;50.846;4.078;2022-09-09T04:46:05;15.10;99.90
20658;DHT22;10488;50.846;4.078;2022-09-09T04:48:31;15.00;99.90
20658;DHT22;10488;50.846;4.078;2022-09-09T04:50:58;15.10;99.90
20658;DHT22;10488;50.846;4.078;2022-09-09T04:53:24;15.10;99.90
20658;DHT22;10488;50.846;4.078;2022-09-09T04:58:38;15.10;99.90
20658;DHT22;10488;50.846;4.078;2022-09-09T05:01:10;15.10;99.90
20658;DHT22;10488;50.846;4.078;2022-09-09T05:03:37;15.10;99.90
20658;DHT22;10488;50.846;4.078;2022-09-09T05:06:10;15.10;99.90
20658;DHT22;10488;50.846;4.078;2022-09-09T05:08:37;15.10;99.90
20658;DHT22;10488;50.846;4.078;2022-09-09T05:13:41;15.10;99.90
20658;DHT22;10488;50.846;4.078;2022-09-09T05:16:07;15.10;99.90
20658;DHT22;10488;50.846;4.078;2022-09-09T05:18:32;15.20;99.90
20658;DHT22;10488;50.846;4.078;2022-09-09T05:21:01;15.20;99.90
20658;DHT22;10488;50.846;4.078;2022-09-09T05:23:27;15.30;99.90
20658;DHT22;10488;50.846;4.078;2022-09-09T05:25:56;15.30;99.90
20658;DHT22;10488;50.846;4.078;2022-09-09T05:28:24;15.30;99.90
20658;DHT22;10488;50.846;4.078;2022-09-09T05:30:58;15.30;99.90
20658;DHT22;10488;50.846;4.078;2022-09-09T05:33:25;15.30;99.90
20658;DHT22;10488;50.846;4.078;2022-09-09T05:36:05;15.30;99.90
20658;DHT22;10488;50.846;4.078;2022-09-09T05:38:32;15.30;99.90
20658;DHT22;10488;50.846;4.078;2022-09-09T05:40:59;15.40;99.90
20658;DHT22;10488;50.846;4.078;2022-09-09T05:43:25;15.30;99.90
20658;DHT22;10488;50.846;4.078;2022-09-09T05:46:03;15.40;99.90
20658;DHT22;10488;50.846;4.078;2022-09-09T05:48:37;15.40;99.90
20658;DHT22;10488;50.846;4.078;2022-09-09T05:51:05;15.30;99.90
20658;DHT22;10488;50.846;4.078;2022-09-09T05:53:32;15.30;99.90
20658;DHT22;10488;50.846;4.078;2022-09-09T05:56:10;15.40;99.90
20658;DHT22;10488;50.846;4.078;2022-09-09T05:58:37;15.60;99.90
20658;DHT22;10488;50.846;4.078;2022-09-09T06:03:29;16.00;99.90
20658;DHT22;10488;50.846;4.078;2022-09-09T06:06:03;15.90;99.90
20658;DHT22;10488;50.846;4.078;2022-09-09T06:08:37;15.90;99.90
20658;DHT22;10488;50.846;4.078;2022-09-09T06:11:05;15.90;99.90
20658;DHT22;10488;50.846;4.078;2022-09-09T06:13:32;15.90;99.90
20658;DHT22;10488;50.846;4.078;2022-09-09T06:15:58;15.80;99.90
20658;DHT22;10488;50.846;4.078;2022-09-09T06:18:25;16.00;99.90
20658;DHT22;10488;50.846;4.078;2022-09-09T06:20:59;16.20;99.90
20658;DHT22;10488;50.846;4.078;2022-09-09T06:23:32;16.50;99.90
20658;DHT22;10488;50.846;4.078;2022-09-09T06:26:15;16.70;99.90
20658;DHT22;10488;50.846;4.078;2022-09-09T06:28:46;16.70;99.90
20658;DHT22;10488;50.846;4.078;2022-09-09T06:31:14;16.50;99.90
20658;DHT22;10488;50.846;4.078;2022-09-09T06:33:41;16.30;99.90
20658;DHT22;10488;50.846;4.078;2022-09-09T06:36:12;16.10;99.90
20658;DHT22;10488;50.846;4.078;2022-09-09T06:38:38;16.10;99.90
20658;DHT22;10488;50.846;4.078;2022-09-09T06:41:04;16.00;99.90
20658;DHT22;10488;50.846;4.078;2022-09-09T06:43:31;16.10;99.90
20658;DHT22;10488;50.846;4.078;2022-09-09T06:45:59;16.10;99.90
20658;DHT22;10488;50.846;4.078;2022-09-09T06:48:25;16.20;99.90
20658;DHT22;10488;50.846;4.078;2022-09-09T06:51:08;16.30;99.90
20658;DHT22;10488;50.846;4.078;2022-09-09T06:53:35;16.40;99.90
20658;DHT22;10488;50.846;4.078;2022-09-09T06:56:24;16.50;99.90
20658;DHT22;10488;50.846;4.078;2022-09-09T06:58:49;16.50;99.90
20658;DHT22;10488;50.846;4.078;2022-09-09T07:01:24;16.50;99.90
20658;DHT22;10488;50.846;4.078;2022-09-09T07:03:54;16.40;99.90
20658;DHT22;10488;50.846;4.078;2022-09-09T07:06:23;16.30;99.90
20658;DHT22;10488;50.846;4.078;2022-09-09T07:08:56;16.50;99.90
20658;DHT22;10488;50.846;4.078;2022-09-09T07:11:23;16.60;99.90
20658;DHT22;10488;50.846;4.078;2022-09-09T07:13:51;16.40;99.90
20658;DHT22;10488;50.846;4.078;2022-09-09T07:16:18;16.30;99.90
20658;DHT22;10488;50.846;4.078;2022-09-09T07:18:44;16.30;99.90
20658;DHT22;10488;50.846;4.078;2022-09-09T07:21:13;16.40;99.90
20658;DHT22;10488;50.846;4.078;2022-09-09T07:23:40;16.30;99.90
20658;DHT22;10488;50.846;4.078;2022-09-09T07:26:14;16.10;99.90
20658;DHT22;10488;50.846;4.078;2022-09-09T07:28:41;16.20;99.90
20658;DHT22;10488;50.846;4.078;2022-09-09T07:31:14;16.10;99.90
20658;DHT22;10488;50.846;4.078;2022-09-09T07:33:42;16.20;99.90
20658;DHT22;10488;50.846;4.078;2022-09-09T07:36:12;16.30;99.90
20658;DHT22;10488;50.846;4.078;2022-09-09T07:38:42;16.40;99.90
20658;DHT22;10488;50.846;4.078;2022-09-09T07:41:15;16.50;99.90
20658;DHT22;10488;50.846;4.078;2022-09-09T07:43:42;16.60;99.90
20658;DHT22;10488;50.846;4.078;2022-09-09T07:46:09;16.60;99.90
20658;DHT22;10488;50.846;4.078;2022-09-09T07:48:35;16.80;99.90
20658;DHT22;10488;50.846;4.078;2022-09-09T07:51:21;16.80;99.90
20658;DHT22;10488;50.846;4.078;2022-09-09T07:53:51;17.10;99.90
20658;DHT22;10488;50.846;4.078;2022-09-09T07:56:17;17.40;99.90
20658;DHT22;10488;50.846;4.078;2022-09-09T07:58:45;17.30;99.90
20658;DHT22;10488;50.846;4.078;2022-09-09T08:01:21;17.30;99.90
20658;DHT22;10488;50.846;4.078;2022-09-09T08:03:57;17.30;99.90
20658;DHT22;10488;50.846;4.078;2022-09-09T08:06:32;17.40;99.90
20658;DHT22;10488;50.846;4.078;2022-09-09T08:08:59;17.30;99.90
20658;DHT22;10488;50.846;4.078;2022-09-09T08:11:26;17.40;99.90
20658;DHT22;10488;50.846;4.078;2022-09-09T08:13:52;17.50;99.90
20658;DHT22;10488;50.846;4.078;2022-09-09T08:16:40;17.60;99.90
20658;DHT22;10488;50.846;4.078;2022-09-09T08:19:07;17.40;99.90
20658;DHT22;10488;50.846;4.078;2022-09-09T08:21:35;17.30;99.90
20658;DHT22;10488;50.846;4.078;2022-09-09T08:24:03;17.10;99.90
20658;DHT22;10488;50.846;4.078;2022-09-09T08:26:35;17.00;99.90
20658;DHT22;10488;50.846;4.078;2022-09-09T08:29:02;17.00;99.90
20658;DHT22;10488;50.846;4.078;2022-09-09T08:31:31;16.90;99.90
20658;DHT22;10488;50.846;4.078;2022-09-09T08:33:58;16.90;99.90
20658;DHT22;10488;50.846;4.078;2022-09-09T08:36:30;16.80;99.90
20658;DHT22;10488;50.846;4.078;2022-09-09T08:38:59;16.70;99.90
20658;DHT22;10488;50.846;4.078;2022-09-09T08:47:33;16.70;99.90
20658;DHT22;10488;50.846;4.078;2022-09-09T08:53:23;16.70;99.90
20658;DHT22;10488;50.846;4.078;2022-09-09T08:55:59;16.80;99.90
20658;DHT22;10488;50.846;4.078;2022-09-09T08:58:33;16.70;99.90
20658;DHT22;10488;50.846;4.078;2022-09-09T09:12:15;17.00;99.90
20658;DHT22;10488;50.846;4.078;2022-09-09T09:14:42;16.90;99.90
20658;DHT22;10488;50.846;4.078;2022-09-09T09:17:21;17.00;99.90
20658;DHT22;10488;50.846;4.078;2022-09-09T09:19:49;16.90;99.90
20658;DHT22;10488;50.846;4.078;2022-09-09T09:22:41;16.80;99.90
20658;DHT22;10488;50.846;4.078;2022-09-09T09:27:52;16.90;99.90
20658;DHT22;10488;50.846;4.078;2022-09-09T09:30:22;16.90;99.90
20658;DHT22;10488;50.846;4.078;2022-09-09T09:33:17;17.00;99.90
20658;DHT22;10488;50.846;4.078;2022-09-09T09:35:43;17.10;99.90
20658;DHT22;10488;50.846;4.078;2022-09-09T09:38:24;17.10;99.90
20658;DHT22;10488;50.846;4.078;2022-09-09T09:40:59;17.20;99.90
20658;DHT22;10488;50.846;4.078;2022-09-09T09:43:30;17.10;99.90
20658;DHT22;10488;50.846;4.078;2022-09-09T09:45:57;17.00;99.90
20658;DHT22;10488;50.846;4.078;2022-09-09T09:48:24;16.80;99.90
20658;DHT22;10488;50.846;4.078;2022-09-09T09:50:59;16.80;99.90
20658;DHT22;10488;50.846;4.078;2022-09-09T09:53:31;16.90;99.90
20658;DHT22;10488;50.846;4.078;2022-09-09T09:55:58;17.10;99.90
20658;DHT22;10488;50.846;4.078;2022-09-09T09:58:26;17.20;99.90
20658;DHT22;10488;50.846;4.078;2022-09-09T10:00:53;17.50;99.90
20658;DHT22;10488;50.846;4.078;2022-09-09T10:03:30;17.60;99.90
20658;DHT22;10488;50.846;4.078;2022-09-09T10:05:56;17.40;99.90
20658;DHT22;10488;50.846;4.078;2022-09-09T10:08:24;17.60;99.90
20658;DHT22;10488;50.846;4.078;2022-09-09T10:16:59;18.40;99.90
20658;DHT22;10488;50.846;4.078;2022-09-09T10:19:34;18.50;99.90
20658;DHT22;10488;50.846;4.078;2022-09-09T10:22:33;18.60;99.90
20658;DHT22;10488;50.846;4.078;2022-09-09T10:25:31;18.80;99.90
20658;DHT22;10488;50.846;4.078;2022-09-09T10:28:23;18.90;99.90
20658;DHT22;10488;50.846;4.078;2022-09-09T10:31:07;18.70;99.90
20658;DHT22;10488;50.846;4.078;2022-09-09T10:34:02;19.00;99.90
20658;DHT22;10488;50.846;4.078;2022-09-09T10:36:29;19.00;99.90
20658;DHT22;10488;50.846;4.078;2022-09-09T10:39:39;18.90;99.90
20658;DHT22;10488;50.846;4.078;2022-09-09T10:42:14;18.60;99.90
20658;DHT22;10488;50.846;4.078;2022-09-09T10:45:14;18.60;99.90
20658;DHT22;10488;50.846;4.078;2022-09-09T10:51:10;18.70;99.90
20658;DHT22;10488;50.846;4.078;2022-09-09T10:55:44;18.70;99.90
20658;DHT22;10488;50.846;4.078;2022-09-09T10:58:17;18.80;99.90
20658;DHT22;10488;50.846;4.078;2022-09-09T11:00:55;19.00;99.90
20658;DHT22;10488;50.846;4.078;2022-09-09T11:03:26;18.90;99.90
20658;DHT22;10488;50.846;4.078;2022-09-09T11:06:14;19.00;99.90
20658;DHT22;10488;50.846;4.078;2022-09-09T11:08:40;19.00;99.90
20658;DHT22;10488;50.846;4.078;2022-09-09T11:14:01;19.00;99.90
20658;DHT22;10488;50.846;4.078;2022-09-09T11:16:42;19.20;99.90
20658;DHT22;10488;50.846;4.078;2022-09-09T11:19:23;19.30;99.90
20658;DHT22;10488;50.846;4.078;2022-09-09T11:21:51;18.90;99.90
20658;DHT22;10488;50.846;4.078;2022-09-09T11:24:23;18.70;99.90
20658;DHT22;10488;50.846;4.078;2022-09-09T11:27:02;18.70;99.90
20658;DHT22;10488;50.846;4.078;2022-09-09T11:38:47;19.00;99.90
20658;DHT22;10488;50.846;4.078;2022-09-09T11:41:15;19.10;99.90
20658;DHT22;10488;50.846;4.078;2022-09-09T11:43:52;18.90;99.90
20658;DHT22;10488;50.846;4.078;2022-09-09T11:46:21;18.90;99.90
20658;DHT22;10488;50.846;4.078;2022-09-09T11:49:01;18.80;99.90
20658;DHT22;10488;50.846;4.078;2022-09-09T11:51:29;19.00;99.90
20658;DHT22;10488;50.846;4.078;2022-09-09T11:56:32;19.20;99.90
20658;DHT22;10488;50.846;4.078;2022-09-09T12:01:33;19.20;99.90
20658;DHT22;10488;50.846;4.078;2022-09-09T12:04:17;19.30;99.90
20658;DHT22;10488;50.846;4.078;2022-09-09T12:06:49;19.40;99.90
20658;DHT22;10488;50.846;4.078;2022-09-09T12:11:41;19.00;99.90
20658;DHT22;10488;50.846;4.078;2022-09-09T12:17:25;19.20;99.90
20658;DHT22;10488;50.846;4.078;2022-09-09T12:20:14;19.30;99.90
20658;DHT22;10488;50.846;4.078;2022-09-09T12:23:03;19.40;99.90
20658;DHT22;10488;50.846;4.078;2022-09-09T12:25:54;19.60;99.90
20658;DHT22;10488;50.846;4.078;2022-09-09T12:33:23;19.40;99.90
20658;DHT22;10488;50.846;4.078;2022-09-09T12:35:59;19.40;99.90
20658;DHT22;10488;50.846;4.078;2022-09-09T12:38:38;19.60;99.90
20658;DHT22;10488;50.846;4.078;2022-09-09T12:41:04;19.90;99.90
20658;DHT22;10488;50.846;4.078;2022-09-09T12:43:30;19.80;99.90
20658;DHT22;10488;50.846;4.078;2022-09-09T12:46:00;19.80;99.90
20658;DHT22;10488;50.846;4.078;2022-09-09T12:48:38;20.00;99.90
20658;DHT22;10488;50.846;4.078;2022-09-09T12:51:30;19.70;99.90
20658;DHT22;10488;50.846;4.078;2022-09-09T12:53:57;19.80;99.90
20658;DHT22;10488;50.846;4.078;2022-09-09T12:56:28;19.80;99.90
20658;DHT22;10488;50.846;4.078;2022-09-09T12:58:56;19.70;99.90
20658;DHT22;10488;50.846;4.078;2022-09-09T13:01:26;19.70;99.90
20658;DHT22;10488;50.846;4.078;2022-09-09T13:03:52;19.70;99.90
20658;DHT22;10488;50.846;4.078;2022-09-09T13:06:24;19.80;99.90
20658;DHT22;10488;50.846;4.078;2022-09-09T13:08:52;19.80;99.90
20658;DHT22;10488;50.846;4.078;2022-09-09T13:11:23;19.90;99.90
20658;DHT22;10488;50.846;4.078;2022-09-09T13:13:52;19.90;99.90
20658;DHT22;10488;50.846;4.078;2022-09-09T13:18:48;20.40;99.90
20658;DHT22;10488;50.846;4.078;2022-09-09T13:21:14;20.60;99.90
20658;DHT22;10488;50.846;4.078;2022-09-09T13:23:40;20.70;99.90
20658;DHT22;10488;50.846;4.078;2022-09-09T13:26:21;21.00;99.90
20658;DHT22;10488;50.846;4.078;2022-09-09T13:28:48;21.50;99.90
20658;DHT22;10488;50.846;4.078;2022-09-09T13:31:38;21.50;99.90
20658;DHT22;10488;50.846;4.078;2022-09-09T13:34:26;21.40;99.90
20658;DHT22;10488;50.846;4.078;2022-09-09T13:36:59;21.20;99.90
20658;DHT22;10488;50.846;4.078;2022-09-09T13:39:26;21.00;99.90
20658;DHT22;10488;50.846;4.078;2022-09-09T13:41:52;20.60;99.90
20658;DHT22;10488;50.846;4.078;2022-09-09T13:44:27;20.70;99.90
20658;DHT22;10488;50.846;4.078;2022-09-09T13:47:18;20.50;99.90
20658;DHT22;10488;50.846;4.078;2022-09-09T13:49:45;20.60;99.90
20658;DHT22;10488;50.846;4.078;2022-09-09T13:52:12;20.70;99.90
20658;DHT22;10488;50.846;4.078;2022-09-09T13:54:39;20.70;99.90
20658;DHT22;10488;50.846;4.078;2022-09-09T13:57:05;21.00;99.90
20658;DHT22;10488;50.846;4.078;2022-09-09T13:59:31;21.00;99.90
20658;DHT22;10488;50.846;4.078;2022-09-09T14:01:57;21.20;99.90
20658;DHT22;10488;50.846;4.078;2022-09-09T14:04:23;21.30;99.90
20658;DHT22;10488;50.846;4.078;2022-09-09T14:06:49;21.20;99.90
20658;DHT22;10488;50.846;4.078;2022-09-09T14:09:17;21.00;99.90
20658;DHT22;10488;50.846;4.078;2022-09-09T14:11:44;21.00;99.90
20658;DHT22;10488;50.846;4.078;2022-09-09T14:14:11;21.10;99.90
20658;DHT22;10488;50.846;4.078;2022-09-09T14:16:37;21.00;99.90
20658;DHT22;10488;50.846;4.078;2022-09-09T14:19:03;20.80;99.90
20658;DHT22;10488;50.846;4.078;2022-09-09T14:21:29;21.10;99.90
20658;DHT22;10488;50.846;4.078;2022-09-09T14:23:55;21.20;99.90
20658;DHT22;10488;50.846;4.078;2022-09-09T14:26:21;21.40;99.90
20658;DHT22;10488;50.846;4.078;2022-09-09T14:28:47;21.50;99.90
20658;DHT22;10488;50.846;4.078;2022-09-09T14:31:13;21.40;99.90
20658;DHT22;10488;50.846;4.078;2022-09-09T14:33:40;21.50;99.90
20658;DHT22;10488;50.846;4.078;2022-09-09T14:36:06;21.40;99.90
20658;DHT22;10488;50.846;4.078;2022-09-09T14:38:34;21.30;99.90
20658;DHT22;10488;50.846;4.078;2022-09-09T14:41:04;21.20;99.90
20658;DHT22;10488;50.846;4.078;2022-09-09T14:43:30;21.00;99.90
20658;DHT22;10488;50.846;4.078;2022-09-09T14:46:04;21.10;99.90
20658;DHT22;10488;50.846;4.078;2022-09-09T14:48:31;21.30;99.90
20658;DHT22;10488;50.846;4.078;2022-09-09T14:50:56;21.00;99.90
20658;DHT22;10488;50.846;4.078;2022-09-09T14:53:23;21.20;99.90
20658;DHT22;10488;50.846;4.078;2022-09-09T14:55:48;21.10;99.90
20658;DHT22;10488;50.846;4.078;2022-09-09T14:58:14;21.20;99.90
20658;DHT22;10488;50.846;4.078;2022-09-09T15:00:40;21.10;99.90
20658;DHT22;10488;50.846;4.078;2022-09-09T15:03:06;21.20;99.90
20658;DHT22;10488;50.846;4.078;2022-09-09T15:05:32;21.30;99.90
20658;DHT22;10488;50.846;4.078;2022-09-09T15:07:57;21.30;99.90
20658;DHT22;10488;50.846;4.078;2022-09-09T15:10:24;21.10;99.90
20658;DHT22;10488;50.846;4.078;2022-09-09T15:12:49;21.00;99.90
20658;DHT22;10488;50.846;4.078;2022-09-09T15:15:15;21.00;99.90
20658;DHT22;10488;50.846;4.078;2022-09-09T15:17:41;21.10;99.90
20658;DHT22;10488;50.846;4.078;2022-09-09T15:20:07;21.00;99.90
20658;DHT22;10488;50.846;4.078;2022-09-09T15:22:33;21.20;99.90
20658;DHT22;10488;50.846;4.078;2022-09-09T15:24:59;21.20;99.90
20658;DHT22;10488;50.846;4.078;2022-09-09T15:27:24;21.30;99.90
20658;DHT22;10488;50.846;4.078;2022-09-09T15:29:50;21.50;99.90
20658;DHT22;10488;50.846;4.078;2022-09-09T15:32:17;21.40;99.90
20658;DHT22;10488;50.846;4.078;2022-09-09T15:34:43;21.20;99.90
20658;DHT22;10488;50.846;4.078;2022-09-09T15:37:10;21.20;99.90
20658;DHT22;10488;50.846;4.078;2022-09-09T15:39:39;21.20;99.90
20658;DHT22;10488;50.846;4.078;2022-09-09T15:42:05;21.10;99.90
20658;DHT22;10488;50.846;4.078;2022-09-09T15:44:42;21.20;99.90
20658;DHT22;10488;50.846;4.078;2022-09-09T15:47:10;20.70;99.90
20658;DHT22;10488;50.846;4.078;2022-09-09T15:49:37;20.90;99.90
20658;DHT22;10488;50.846;4.078;2022-09-09T15:52:04;21.00;99.90
20658;DHT22;10488;50.846;4.078;2022-09-09T15:54:35;20.90;99.90
20658;DHT22;10488;50.846;4.078;2022-09-09T15:57:03;20.60;99.90
20658;DHT22;10488;50.846;4.078;2022-09-09T15:59:30;20.40;99.90
20658;DHT22;10488;50.846;4.078;2022-09-09T16:01:57;20.50;99.90
20658;DHT22;10488;50.846;4.078;2022-09-09T16:04:24;20.50;99.90
20658;DHT22;10488;50.846;4.078;2022-09-09T16:07:00;20.10;99.90
20658;DHT22;10488;50.846;4.078;2022-09-09T16:09:27;20.00;99.90
20658;DHT22;10488;50.846;4.078;2022-09-09T16:11:56;19.90;99.90
20658;DHT22;10488;50.846;4.078;2022-09-09T16:14:23;19.90;99.90
20658;DHT22;10488;50.846;4.078;2022-09-09T16:16:50;20.00;99.90
20658;DHT22;10488;50.846;4.078;2022-09-09T16:19:15;20.20;99.90
20658;DHT22;10488;50.846;4.078;2022-09-09T16:21:45;20.30;99.90
20658;DHT22;10488;50.846;4.078;2022-09-09T16:24:14;20.40;99.90
20658;DHT22;10488;50.846;4.078;2022-09-09T16:26:44;20.20;99.90
20658;DHT22;10488;50.846;4.078;2022-09-09T16:29:13;20.20;99.90
20658;DHT22;10488;50.846;4.078;2022-09-09T16:31:40;20.30;99.90
20658;DHT22;10488;50.846;4.078;2022-09-09T16:34:06;20.20;99.90
20658;DHT22;10488;50.846;4.078;2022-09-09T16:36:34;20.20;99.90
20658;DHT22;10488;50.846;4.078;2022-09-09T16:39:05;20.40;99.90
20658;DHT22;10488;50.846;4.078;2022-09-09T16:41:31;20.40;99.90
20658;DHT22;10488;50.846;4.078;2022-09-09T16:43:59;20.30;99.90
20658;DHT22;10488;50.846;4.078;2022-09-09T16:46:26;20.50;99.90
20658;DHT22;10488;50.846;4.078;2022-09-09T16:48:53;20.30;99.90
20658;DHT22;10488;50.846;4.078;2022-09-09T16:51:29;20.30;99.90
20658;DHT22;10488;50.846;4.078;2022-09-09T16:53:57;20.20;99.90
20658;DHT22;10488;50.846;4.078;2022-09-09T16:56:25;20.10;99.90
20658;DHT22;10488;50.846;4.078;2022-09-09T16:58:53;20.10;99.90
20658;DHT22;10488;50.846;4.078;2022-09-09T17:01:24;20.10;99.90
20658;DHT22;10488;50.846;4.078;2022-09-09T17:03:55;20.30;99.90
20658;DHT22;10488;50.846;4.078;2022-09-09T17:06:21;20.30;99.90
20658;DHT22;10488;50.846;4.078;2022-09-09T17:08:47;20.20;99.90
20658;DHT22;10488;50.846;4.078;2022-09-09T17:11:15;19.90;99.90
20658;DHT22;10488;50.846;4.078;2022-09-09T17:13:42;19.70;99.90
20658;DHT22;10488;50.846;4.078;2022-09-09T17:16:08;19.70;99.90
20658;DHT22;10488;50.846;4.078;2022-09-09T17:18:35;19.70;99.90
20658;DHT22;10488;50.846;4.078;2022-09-09T17:21:05;19.50;99.90
20658;DHT22;10488;50.846;4.078;2022-09-09T17:23:33;19.50;99.90
20658;DHT22;10488;50.846;4.078;2022-09-09T17:26:00;19.40;99.90
20658;DHT22;10488;50.846;4.078;2022-09-09T17:28:26;19.10;99.90
20658;DHT22;10488;50.846;4.078;2022-09-09T17:30:57;19.00;99.90
20658;DHT22;10488;50.846;4.078;2022-09-09T17:33:24;18.90;99.90
20658;DHT22;10488;50.846;4.078;2022-09-09T17:35:51;18.90;99.90
20658;DHT22;10488;50.846;4.078;2022-09-09T17:38:17;18.80;99.90
20658;DHT22;10488;50.846;4.078;2022-09-09T17:40:43;18.70;99.90
20658;DHT22;10488;50.846;4.078;2022-09-09T17:43:08;18.40;99.90